sensor_id;sensor_type;location;lat;lon;timestamp;pressure;altitude;pressure_sealevel;temperature
62611;BMP280;48683;48.084;17.272;2023-11-22T00:01:05;100211.41;;;6.55
62611;BMP280;48683;48.084;17.272;2023-11-22T00:03:31;100224.72;;;6.55
62611;BMP280;48683;48.084;17.272;2023-11-22T00:05:57;100214.13;;;6.58
62611;BMP280;48683;48.084;17.272;2023-11-22T00:08:23;100226.72;;;6.61
62611;BMP280;48683;48.084;17.272;2023-11-22T00:10:49;100232.97;;;6.69
62611;BMP280;48683;48.084;17.272;2023-11-22T00:13:15;100226.16;;;6.72
62611;BMP280;48683;48.084;17.272;2023-11-22T00:15:40;100228.53;;;6.77
62611;BMP280;48683;48.084;17.272;2023-11-22T00:18:07;100233.97;;;6.84
62611;BMP280;48683;48.084;17.272;2023-11-22T00:20:32;100236.69;;;6.87
62611;BMP280;48683;48.084;17.272;2023-11-22T00:22:59;100230.16;;;6.85
62611;BMP280;48683;48.084;17.272;2023-11-22T00:25:24;100244.00;;;6.94
62611;BMP280;48683;48.084;17.272;2023-11-22T00:27:50;100240.91;;;6.88
62611;BMP280;48683;48.084;17.272;2023-11-22T00:30:15;100238.56;;;6.87
62611;BMP280;48683;48.084;17.272;2023-11-22T00:32:41;100245.13;;;6.93
62611;BMP280;48683;48.084;17.272;2023-11-22T00:35:07;100238.63;;;6.90
62611;BMP280;48683;48.084;17.272;2023-11-22T00:37:33;100256.63;;;6.97
62611;BMP280;48683;48.084;17.272;2023-11-22T00:40:00;100259.00;;;7.02
62611;BMP280;48683;48.084;17.272;2023-11-22T00:42:26;100252.50;;;6.99
62611;BMP280;48683;48.084;17.272;2023-11-22T00:44:52;100257.16;;;7.06
62611;BMP280;48683;48.084;17.272;2023-11-22T00:47:17;100250.66;;;7.03
62611;BMP280;48683;48.084;17.272;2023-11-22T00:49:43;100244.06;;;6.97
62611;BMP280;48683;48.084;17.272;2023-11-22T00:52:08;100247.97;;;7.03
62611;BMP280;48683;48.084;17.272;2023-11-22T00:54:34;100259.19;;;7.16
62611;BMP280;48683;48.084;17.272;2023-11-22T00:56:59;100239.59;;;7.05
62611;BMP280;48683;48.084;17.272;2023-11-22T00:59:25;100256.91;;;7.14
62611;BMP280;48683;48.084;17.272;2023-11-22T01:01:52;100262.34;;;7.22
62611;BMP280;48683;48.084;17.272;2023-11-22T01:04:17;100274.22;;;7.28
62611;BMP280;48683;48.084;17.272;2023-11-22T01:06:42;100268.16;;;7.27
62611;BMP280;48683;48.084;17.272;2023-11-22T01:09:08;100272.28;;;7.25
62611;BMP280;48683;48.084;17.272;2023-11-22T01:11:39;100265.00;;;7.22
62611;BMP280;48683;48.084;17.272;2023-11-22T01:14:04;100253.09;;;7.15
62611;BMP280;48683;48.084;17.272;2023-11-22T01:16:30;100263.13;;;7.22
62611;BMP280;48683;48.084;17.272;2023-11-22T01:18:55;100256.59;;;7.20
62611;BMP280;48683;48.084;17.272;2023-11-22T01:21:21;100257.00;;;7.22
62611;BMP280;48683;48.084;17.272;2023-11-22T01:23:46;100255.00;;;7.15
62611;BMP280;48683;48.084;17.272;2023-11-22T01:26:11;100255.34;;;7.13
62611;BMP280;48683;48.084;17.272;2023-11-22T01:28:37;100268.09;;;7.24
62611;BMP280;48683;48.084;17.272;2023-11-22T01:31:02;100273.84;;;7.26
62611;BMP280;48683;48.084;17.272;2023-11-22T01:33:28;100272.66;;;7.23
62611;BMP280;48683;48.084;17.272;2023-11-22T01:35:54;100264.22;;;7.21
62611;BMP280;48683;48.084;17.272;2023-11-22T01:38:19;100263.13;;;7.22
62611;BMP280;48683;48.084;17.272;2023-11-22T01:40:46;100271.91;;;7.23
62611;BMP280;48683;48.084;17.272;2023-11-22T01:43:16;100273.38;;;7.20
62611;BMP280;48683;48.084;17.272;2023-11-22T01:45:42;100266.47;;;7.15
62611;BMP280;48683;48.084;17.272;2023-11-22T01:48:07;100256.84;;;7.11
62611;BMP280;48683;48.084;17.272;2023-11-22T01:50:36;100252.59;;;7.06
62611;BMP280;48683;48.084;17.272;2023-11-22T01:53:02;100252.06;;;6.97
62611;BMP280;48683;48.084;17.272;2023-11-22T01:55:28;100232.56;;;6.93
62611;BMP280;48683;48.084;17.272;2023-11-22T01:57:56;100260.53;;;7.03
62611;BMP280;48683;48.084;17.272;2023-11-22T02:00:22;100255.16;;;6.99
62611;BMP280;48683;48.084;17.272;2023-11-22T02:02:50;100265.41;;;6.97
62611;BMP280;48683;48.084;17.272;2023-11-22T02:05:15;100274.97;;;6.98
62611;BMP280;48683;48.084;17.272;2023-11-22T02:07:41;100282.63;;;7.00
62611;BMP280;48683;48.084;17.272;2023-11-22T02:10:07;100272.97;;;6.92
62611;BMP280;48683;48.084;17.272;2023-11-22T02:12:33;100282.63;;;7.00
62611;BMP280;48683;48.084;17.272;2023-11-22T02:14:58;100288.66;;;6.97
62611;BMP280;48683;48.084;17.272;2023-11-22T02:17:24;100285.59;;;6.95
62611;BMP280;48683;48.084;17.272;2023-11-22T02:19:49;100297.09;;;6.99
62611;BMP280;48683;48.084;17.272;2023-11-22T02:22:15;100307.09;;;7.05
62611;BMP280;48683;48.084;17.272;2023-11-22T02:24:40;100315.09;;;7.05
62611;BMP280;48683;48.084;17.272;2023-11-22T02:27:06;100323.53;;;7.07
62611;BMP280;48683;48.084;17.272;2023-11-22T02:29:31;100329.56;;;7.04
62611;BMP280;48683;48.084;17.272;2023-11-22T02:31:57;100330.00;;;7.06
62611;BMP280;48683;48.084;17.272;2023-11-22T02:34:22;100334.16;;;7.04
62611;BMP280;48683;48.084;17.272;2023-11-22T02:36:48;100334.09;;;7.00
62611;BMP280;48683;48.084;17.272;2023-11-22T02:39:14;100344.84;;;7.04
62611;BMP280;48683;48.084;17.272;2023-11-22T02:41:39;100334.41;;;6.95
62611;BMP280;48683;48.084;17.272;2023-11-22T02:44:04;100336.66;;;6.93
62611;BMP280;48683;48.084;17.272;2023-11-22T02:46:32;100340.50;;;6.96
62611;BMP280;48683;48.084;17.272;2023-11-22T02:48:58;100314.78;;;6.84
62611;BMP280;48683;48.084;17.272;2023-11-22T02:51:24;100326.63;;;6.87
62611;BMP280;48683;48.084;17.272;2023-11-22T02:53:50;100327.50;;;6.94
62611;BMP280;48683;48.084;17.272;2023-11-22T02:56:16;100329.41;;;6.94
62611;BMP280;48683;48.084;17.272;2023-11-22T02:58:41;100331.41;;;7.00
62611;BMP280;48683;48.084;17.272;2023-11-22T03:01:07;100324.50;;;6.96
62611;BMP280;48683;48.084;17.272;2023-11-22T03:03:35;100327.63;;;7.01
62611;BMP280;48683;48.084;17.272;2023-11-22T03:06:01;100329.53;;;7.01
62611;BMP280;48683;48.084;17.272;2023-11-22T03:08:26;100325.63;;;6.95
62611;BMP280;48683;48.084;17.272;2023-11-22T03:10:52;100333.69;;;6.98
62611;BMP280;48683;48.084;17.272;2023-11-22T03:13:18;100336.25;;;6.91
62611;BMP280;48683;48.084;17.272;2023-11-22T03:15:43;100350.00;;;6.93
62611;BMP280;48683;48.084;17.272;2023-11-22T03:18:09;100354.97;;;6.95
62611;BMP280;48683;48.084;17.272;2023-11-22T03:20:36;100371.09;;;7.02
62611;BMP280;48683;48.084;17.272;2023-11-22T03:23:02;100358.72;;;6.90
62611;BMP280;48683;48.084;17.272;2023-11-22T03:25:28;100368.03;;;7.00
62611;BMP280;48683;48.084;17.272;2023-11-22T03:27:54;100354.94;;;6.91
62611;BMP280;48683;48.084;17.272;2023-11-22T03:30:19;100363.34;;;6.93
62611;BMP280;48683;48.084;17.272;2023-11-22T03:32:45;100374.00;;;6.93
62611;BMP280;48683;48.084;17.272;2023-11-22T03:35:10;100383.50;;;6.91
62611;BMP280;48683;48.084;17.272;2023-11-22T03:37:36;100390.78;;;6.94
62611;BMP280;48683;48.084;17.272;2023-11-22T03:40:02;100395.41;;;6.97
62611;BMP280;48683;48.084;17.272;2023-11-22T03:42:28;100413.47;;;7.03
62611;BMP280;48683;48.084;17.272;2023-11-22T03:44:54;100409.13;;;6.95
62611;BMP280;48683;48.084;17.272;2023-11-22T03:47:19;100426.44;;;7.05
62611;BMP280;48683;48.084;17.272;2023-11-22T03:49:45;100431.44;;;7.06
62611;BMP280;48683;48.084;17.272;2023-11-22T03:52:10;100420.16;;;6.94
62611;BMP280;48683;48.084;17.272;2023-11-22T03:54:37;100412.03;;;6.87
62611;BMP280;48683;48.084;17.272;2023-11-22T03:57:02;100429.72;;;6.95
62611;BMP280;48683;48.084;17.272;2023-11-22T03:59:28;100428.88;;;6.91
62611;BMP280;48683;48.084;17.272;2023-11-22T04:01:53;100437.16;;;6.86
62611;BMP280;48683;48.084;17.272;2023-11-22T04:04:19;100440.97;;;6.85
62611;BMP280;48683;48.084;17.272;2023-11-22T04:06:44;100442.50;;;6.86
62611;BMP280;48683;48.084;17.272;2023-11-22T04:09:10;100453.81;;;6.79
62611;BMP280;48683;48.084;17.272;2023-11-22T04:11:37;100429.69;;;6.72
62611;BMP280;48683;48.084;17.272;2023-11-22T04:14:03;100458.22;;;6.91
62611;BMP280;48683;48.084;17.272;2023-11-22T04:16:28;100438.53;;;6.76
62611;BMP280;48683;48.084;17.272;2023-11-22T04:18:53;100461.50;;;6.81
62611;BMP280;48683;48.084;17.272;2023-11-22T04:21:19;100460.34;;;6.82
62611;BMP280;48683;48.084;17.272;2023-11-22T04:23:44;100454.75;;;6.67
62611;BMP280;48683;48.084;17.272;2023-11-22T04:26:10;100460.44;;;6.66
62611;BMP280;48683;48.084;17.272;2023-11-22T04:28:35;100473.09;;;6.69
62611;BMP280;48683;48.084;17.272;2023-11-22T04:31:01;100471.75;;;6.59
62611;BMP280;48683;48.084;17.272;2023-11-22T04:33:26;100487.34;;;6.57
62611;BMP280;48683;48.084;17.272;2023-11-22T04:35:55;100485.00;;;6.56
62611;BMP280;48683;48.084;17.272;2023-11-22T04:38:20;100495.25;;;6.54
62611;BMP280;48683;48.084;17.272;2023-11-22T04:40:46;100486.19;;;6.39
62611;BMP280;48683;48.084;17.272;2023-11-22T04:43:11;100511.75;;;6.40
62611;BMP280;48683;48.084;17.272;2023-11-22T04:45:36;100510.97;;;6.40
62611;BMP280;48683;48.084;17.272;2023-11-22T04:48:03;100527.53;;;6.49
62611;BMP280;48683;48.084;17.272;2023-11-22T04:50:28;100526.25;;;6.43
62611;BMP280;48683;48.084;17.272;2023-11-22T04:52:53;100515.25;;;6.09
62611;BMP280;48683;48.084;17.272;2023-11-22T04:55:19;100501.19;;;5.93
62611;BMP280;48683;48.084;17.272;2023-11-22T04:57:45;100515.09;;;6.02
62611;BMP280;48683;48.084;17.272;2023-11-22T05:00:11;100531.59;;;6.08
62611;BMP280;48683;48.084;17.272;2023-11-22T05:02:37;100527.91;;;5.97
62611;BMP280;48683;48.084;17.272;2023-11-22T05:05:03;100518.00;;;5.82
62611;BMP280;48683;48.084;17.272;2023-11-22T05:07:29;100518.19;;;5.89
62611;BMP280;48683;48.084;17.272;2023-11-22T05:09:54;100540.03;;;5.94
62611;BMP280;48683;48.084;17.272;2023-11-22T05:12:20;100534.72;;;5.94
62611;BMP280;48683;48.084;17.272;2023-11-22T05:14:45;100540.91;;;5.98
62611;BMP280;48683;48.084;17.272;2023-11-22T05:17:11;100552.41;;;6.02
62611;BMP280;48683;48.084;17.272;2023-11-22T05:19:37;100551.28;;;6.03
62611;BMP280;48683;48.084;17.272;2023-11-22T05:22:03;100565.28;;;6.00
62611;BMP280;48683;48.084;17.272;2023-11-22T05:24:28;100555.25;;;5.94
62611;BMP280;48683;48.084;17.272;2023-11-22T05:26:54;100566.69;;;5.94
62611;BMP280;48683;48.084;17.272;2023-11-22T05:29:19;100564.88;;;5.98
62611;BMP280;48683;48.084;17.272;2023-11-22T05:31:45;100565.22;;;5.97
62611;BMP280;48683;48.084;17.272;2023-11-22T05:34:10;100564.06;;;5.82
62611;BMP280;48683;48.084;17.272;2023-11-22T05:36:35;100567.34;;;5.76
62611;BMP280;48683;48.084;17.272;2023-11-22T05:39:01;100564.22;;;5.58
62611;BMP280;48683;48.084;17.272;2023-11-22T05:41:30;100566.38;;;5.52
62611;BMP280;48683;48.084;17.272;2023-11-22T05:43:56;100582.28;;;5.64
62611;BMP280;48683;48.084;17.272;2023-11-22T05:46:22;100581.59;;;5.52
62611;BMP280;48683;48.084;17.272;2023-11-22T05:48:49;100568.94;;;5.49
62611;BMP280;48683;48.084;17.272;2023-11-22T05:51:16;100579.25;;;5.50
62611;BMP280;48683;48.084;17.272;2023-11-22T05:53:41;100584.03;;;5.45
62611;BMP280;48683;48.084;17.272;2023-11-22T05:56:06;100595.38;;;5.42
62611;BMP280;48683;48.084;17.272;2023-11-22T05:58:34;100601.84;;;5.41
62611;BMP280;48683;48.084;17.272;2023-11-22T06:00:59;100609.72;;;5.37
62611;BMP280;48683;48.084;17.272;2023-11-22T06:03:25;100606.78;;;5.26
62611;BMP280;48683;48.084;17.272;2023-11-22T06:05:50;100618.88;;;5.24
62611;BMP280;48683;48.084;17.272;2023-11-22T06:08:16;100620.22;;;5.18
62611;BMP280;48683;48.084;17.272;2023-11-22T06:10:41;100613.28;;;5.13
62611;BMP280;48683;48.084;17.272;2023-11-22T06:13:06;100619.84;;;5.04
62611;BMP280;48683;48.084;17.272;2023-11-22T06:15:32;100608.00;;;4.89
62611;BMP280;48683;48.084;17.272;2023-11-22T06:17:57;100619.53;;;4.93
62611;BMP280;48683;48.084;17.272;2023-11-22T06:20:23;100635.03;;;4.91
62611;BMP280;48683;48.084;17.272;2023-11-22T06:22:49;100626.19;;;4.75
62611;BMP280;48683;48.084;17.272;2023-11-22T06:25:14;100635.63;;;4.72
62611;BMP280;48683;48.084;17.272;2023-11-22T06:27:40;100628.34;;;4.57
62611;BMP280;48683;48.084;17.272;2023-11-22T06:30:06;100616.84;;;4.41
62611;BMP280;48683;48.084;17.272;2023-11-22T06:32:34;100635.66;;;4.48
62611;BMP280;48683;48.084;17.272;2023-11-22T06:34:59;100636.13;;;4.50
62611;BMP280;48683;48.084;17.272;2023-11-22T06:37:25;100619.84;;;4.40
62611;BMP280;48683;48.084;17.272;2023-11-22T06:39:51;100653.72;;;4.55
62611;BMP280;48683;48.084;17.272;2023-11-22T06:42:17;100661.72;;;4.55
62611;BMP280;48683;48.084;17.272;2023-11-22T06:44:42;100664.91;;;4.48
62611;BMP280;48683;48.084;17.272;2023-11-22T06:47:08;100660.03;;;4.50
62611;BMP280;48683;48.084;17.272;2023-11-22T06:49:33;100641.41;;;4.26
62611;BMP280;48683;48.084;17.272;2023-11-22T06:51:59;100661.38;;;4.20
62611;BMP280;48683;48.084;17.272;2023-11-22T06:54:24;100684.72;;;4.26
62611;BMP280;48683;48.084;17.272;2023-11-22T06:56:50;100674.19;;;4.18
62611;BMP280;48683;48.084;17.272;2023-11-22T06:59:16;100697.13;;;4.22
62611;BMP280;48683;48.084;17.272;2023-11-22T07:01:42;100713.28;;;4.17
62611;BMP280;48683;48.084;17.272;2023-11-22T07:04:07;100702.09;;;4.12
62611;BMP280;48683;48.084;17.272;2023-11-22T07:06:33;100700.63;;;4.02
62611;BMP280;48683;48.084;17.272;2023-11-22T07:08:58;100703.94;;;3.99
62611;BMP280;48683;48.084;17.272;2023-11-22T07:11:25;100716.13;;;4.00
62611;BMP280;48683;48.084;17.272;2023-11-22T07:13:51;100715.50;;;3.82
62611;BMP280;48683;48.084;17.272;2023-11-22T07:16:17;100729.94;;;3.94
62611;BMP280;48683;48.084;17.272;2023-11-22T07:18:44;100731.78;;;3.81
62611;BMP280;48683;48.084;17.272;2023-11-22T07:21:10;100719.78;;;3.75
62611;BMP280;48683;48.084;17.272;2023-11-22T07:23:36;100718.69;;;3.76
62611;BMP280;48683;48.084;17.272;2023-11-22T07:26:03;100748.53;;;3.94
62611;BMP280;48683;48.084;17.272;2023-11-22T07:28:28;100738.19;;;3.80
62611;BMP280;48683;48.084;17.272;2023-11-22T07:30:54;100732.28;;;3.74
62611;BMP280;48683;48.084;17.272;2023-11-22T07:33:19;100758.91;;;3.87
62611;BMP280;48683;48.084;17.272;2023-11-22T07:35:46;100757.94;;;3.91
62611;BMP280;48683;48.084;17.272;2023-11-22T07:38:11;100761.63;;;3.99
62611;BMP280;48683;48.084;17.272;2023-11-22T07:40:36;100769.50;;;4.07
62611;BMP280;48683;48.084;17.272;2023-11-22T07:43:02;100800.38;;;4.45
62611;BMP280;48683;48.084;17.272;2023-11-22T07:45:30;100797.44;;;4.58
62611;BMP280;48683;48.084;17.272;2023-11-22T07:47:57;100766.59;;;4.45
62611;BMP280;48683;48.084;17.272;2023-11-22T07:50:25;100768.59;;;4.48
62611;BMP280;48683;48.084;17.272;2023-11-22T07:52:50;100785.25;;;4.57
62611;BMP280;48683;48.084;17.272;2023-11-22T07:55:16;100780.47;;;4.51
62611;BMP280;48683;48.084;17.272;2023-11-22T07:57:43;100789.47;;;4.58
62611;BMP280;48683;48.084;17.272;2023-11-22T08:00:09;100772.81;;;4.49
62611;BMP280;48683;48.084;17.272;2023-11-22T08:02:36;100794.91;;;4.74
62611;BMP280;48683;48.084;17.272;2023-11-22T08:05:06;100786.59;;;4.75
62611;BMP280;48683;48.084;17.272;2023-11-22T08:07:35;100806.00;;;4.88
62611;BMP280;48683;48.084;17.272;2023-11-22T08:10:00;100797.13;;;4.84
62611;BMP280;48683;48.084;17.272;2023-11-22T08:12:35;100800.25;;;4.86
62611;BMP280;48683;48.084;17.272;2023-11-22T08:15:02;100810.66;;;4.91
62611;BMP280;48683;48.084;17.272;2023-11-22T08:17:29;100794.38;;;4.93
62611;BMP280;48683;48.084;17.272;2023-11-22T08:19:54;100809.75;;;4.99
62611;BMP280;48683;48.084;17.272;2023-11-22T08:22:20;100807.00;;;4.96
62611;BMP280;48683;48.084;17.272;2023-11-22T08:24:46;100828.72;;;5.10
62611;BMP280;48683;48.084;17.272;2023-11-22T08:27:12;100819.41;;;5.04
62611;BMP280;48683;48.084;17.272;2023-11-22T08:29:39;100834.94;;;5.26
62611;BMP280;48683;48.084;17.272;2023-11-22T08:32:05;100829.84;;;5.21
62611;BMP280;48683;48.084;17.272;2023-11-22T08:34:31;100846.16;;;5.19
62611;BMP280;48683;48.084;17.272;2023-11-22T08:36:57;100849.13;;;5.42
62611;BMP280;48683;48.084;17.272;2023-11-22T08:39:22;100858.69;;;5.43
62611;BMP280;48683;48.084;17.272;2023-11-22T08:41:47;100854.56;;;5.46
62611;BMP280;48683;48.084;17.272;2023-11-22T08:44:15;100854.47;;;5.42
62611;BMP280;48683;48.084;17.272;2023-11-22T08:46:41;100837.69;;;5.30
62611;BMP280;48683;48.084;17.272;2023-11-22T08:49:06;100857.91;;;5.43
62611;BMP280;48683;48.084;17.272;2023-11-22T08:51:31;100858.34;;;5.33
62611;BMP280;48683;48.084;17.272;2023-11-22T08:53:58;100863.59;;;5.29
62611;BMP280;48683;48.084;17.272;2023-11-22T08:56:24;100878.31;;;5.39
62611;BMP280;48683;48.084;17.272;2023-11-22T08:58:49;100862.78;;;5.29
62611;BMP280;48683;48.084;17.272;2023-11-22T09:01:15;100861.81;;;5.21
62611;BMP280;48683;48.084;17.272;2023-11-22T09:03:40;100884.97;;;5.45
62611;BMP280;48683;48.084;17.272;2023-11-22T09:06:06;100883.06;;;5.45
62611;BMP280;48683;48.084;17.272;2023-11-22T09:08:32;100870.09;;;5.44
62611;BMP280;48683;48.084;17.272;2023-11-22T09:10:58;100879.88;;;5.52
62611;BMP280;48683;48.084;17.272;2023-11-22T09:13:23;100869.22;;;5.52
62611;BMP280;48683;48.084;17.272;2023-11-22T09:15:50;100875.44;;;5.44
62611;BMP280;48683;48.084;17.272;2023-11-22T09:18:15;100885.19;;;5.64
62611;BMP280;48683;48.084;17.272;2023-11-22T09:20:44;100890.84;;;5.74
62611;BMP280;48683;48.084;17.272;2023-11-22T09:23:10;100892.03;;;5.77
62611;BMP280;48683;48.084;17.272;2023-11-22T09:25:35;100861.66;;;5.66
62611;BMP280;48683;48.084;17.272;2023-11-22T09:28:01;100867.44;;;5.68
62611;BMP280;48683;48.084;17.272;2023-11-22T09:30:31;100882.06;;;5.86
62611;BMP280;48683;48.084;17.272;2023-11-22T09:33:12;100890.06;;;5.74
62611;BMP280;48683;48.084;17.272;2023-11-22T09:35:40;100896.78;;;5.84
62611;BMP280;48683;48.084;17.272;2023-11-22T09:38:08;100874.72;;;5.83
62611;BMP280;48683;48.084;17.272;2023-11-22T09:40:42;100898.56;;;6.04
62611;BMP280;48683;48.084;17.272;2023-11-22T09:43:09;100902.00;;;6.04
62611;BMP280;48683;48.084;17.272;2023-11-22T09:45:35;100896.16;;;5.99
62611;BMP280;48683;48.084;17.272;2023-11-22T09:48:02;100904.66;;;6.04
62611;BMP280;48683;48.084;17.272;2023-11-22T09:50:50;100911.44;;;6.14
62611;BMP280;48683;48.084;17.272;2023-11-22T09:53:32;100910.84;;;6.20
62611;BMP280;48683;48.084;17.272;2023-11-22T09:56:00;100904.00;;;6.07
62611;BMP280;48683;48.084;17.272;2023-11-22T09:58:29;100908.75;;;6.14
62611;BMP280;48683;48.084;17.272;2023-11-22T10:00:55;100894.78;;;6.05
62611;BMP280;48683;48.084;17.272;2023-11-22T10:03:21;100932.75;;;6.14
62611;BMP280;48683;48.084;17.272;2023-11-22T10:05:49;100905.69;;;5.88
62611;BMP280;48683;48.084;17.272;2023-11-22T10:08:14;100930.66;;;6.07
62611;BMP280;48683;48.084;17.272;2023-11-22T10:10:42;100898.06;;;5.86
62611;BMP280;48683;48.084;17.272;2023-11-22T10:13:09;100924.09;;;6.05
62611;BMP280;48683;48.084;17.272;2023-11-22T10:15:35;100928.34;;;6.06
62611;BMP280;48683;48.084;17.272;2023-11-22T10:18:00;100916.50;;;5.91
62611;BMP280;48683;48.084;17.272;2023-11-22T10:20:39;100931.22;;;6.01
62611;BMP280;48683;48.084;17.272;2023-11-22T10:23:12;100948.31;;;6.12
62611;BMP280;48683;48.084;17.272;2023-11-22T10:25:44;100944.88;;;5.99
62611;BMP280;48683;48.084;17.272;2023-11-22T10:28:11;100946.19;;;6.17
62611;BMP280;48683;48.084;17.272;2023-11-22T10:30:37;100957.63;;;6.18
62611;BMP280;48683;48.084;17.272;2023-11-22T10:33:02;100958.41;;;6.18
62611;BMP280;48683;48.084;17.272;2023-11-22T10:35:28;100930.44;;;6.00
62611;BMP280;48683;48.084;17.272;2023-11-22T10:37:54;100947.88;;;6.10
62611;BMP280;48683;48.084;17.272;2023-11-22T10:40:19;100959.53;;;6.05
62611;BMP280;48683;48.084;17.272;2023-11-22T10:42:47;100956.69;;;5.98
62611;BMP280;48683;48.084;17.272;2023-11-22T10:45:15;100948.34;;;5.88
62611;BMP280;48683;48.084;17.272;2023-11-22T10:47:42;100948.97;;;5.85
62611;BMP280;48683;48.084;17.272;2023-11-22T10:50:08;100969.44;;;6.05
62611;BMP280;48683;48.084;17.272;2023-11-22T10:52:36;100958.44;;;6.06
62611;BMP280;48683;48.084;17.272;2023-11-22T10:55:05;100980.16;;;6.20
62611;BMP280;48683;48.084;17.272;2023-11-22T10:57:32;100986.09;;;6.14
62611;BMP280;48683;48.084;17.272;2023-11-22T11:00:02;100954.09;;;5.65
62611;BMP280;48683;48.084;17.272;2023-11-22T11:02:41;100966.28;;;5.30
62611;BMP280;48683;48.084;17.272;2023-11-22T11:05:16;100953.59;;;5.03
62611;BMP280;48683;48.084;17.272;2023-11-22T11:07:49;100981.56;;;5.09
62611;BMP280;48683;48.084;17.272;2023-11-22T11:10:15;100976.91;;;5.18
62611;BMP280;48683;48.084;17.272;2023-11-22T11:12:41;100967.91;;;5.10
62611;BMP280;48683;48.084;17.272;2023-11-22T11:15:07;100974.63;;;5.29
62611;BMP280;48683;48.084;17.272;2023-11-22T11:17:33;100983.94;;;5.35
62611;BMP280;48683;48.084;17.272;2023-11-22T11:19:59;100978.81;;;5.17
62611;BMP280;48683;48.084;17.272;2023-11-22T11:22:25;100979.25;;;5.19
62611;BMP280;48683;48.084;17.272;2023-11-22T11:25:00;100975.81;;;5.19
62611;BMP280;48683;48.084;17.272;2023-11-22T11:27:26;100966.22;;;5.06
62611;BMP280;48683;48.084;17.272;2023-11-22T11:29:51;100989.34;;;5.26
62611;BMP280;48683;48.084;17.272;2023-11-22T11:32:31;100997.25;;;5.35
62611;BMP280;48683;48.084;17.272;2023-11-22T11:34:57;100997.06;;;5.52
62611;BMP280;48683;48.084;17.272;2023-11-22T11:37:25;101002.59;;;5.47
62611;BMP280;48683;48.084;17.272;2023-11-22T11:39:51;101007.38;;;5.53
62611;BMP280;48683;48.084;17.272;2023-11-22T11:42:16;101006.25;;;5.42
62611;BMP280;48683;48.084;17.272;2023-11-22T11:47:26;101022.81;;;5.48
62611;BMP280;48683;48.084;17.272;2023-11-22T11:49:52;101028.13;;;5.48
62611;BMP280;48683;48.084;17.272;2023-11-22T11:52:17;101031.97;;;5.38
62611;BMP280;48683;48.084;17.272;2023-11-22T11:54:43;101020.66;;;5.41
62611;BMP280;48683;48.084;17.272;2023-11-22T11:57:09;101024.22;;;5.45
62611;BMP280;48683;48.084;17.272;2023-11-22T11:59:35;101011.31;;;5.23
62611;BMP280;48683;48.084;17.272;2023-11-22T12:02:01;101028.00;;;5.44
62611;BMP280;48683;48.084;17.272;2023-11-22T12:04:27;101039.00;;;5.43
62611;BMP280;48683;48.084;17.272;2023-11-22T12:06:52;101030.75;;;5.36
62611;BMP280;48683;48.084;17.272;2023-11-22T12:09:24;101054.31;;;5.46
62611;BMP280;48683;48.084;17.272;2023-11-22T12:11:56;101049.88;;;5.50
62611;BMP280;48683;48.084;17.272;2023-11-22T12:14:24;101035.09;;;5.40
62611;BMP280;48683;48.084;17.272;2023-11-22T12:16:51;101016.44;;;5.28
62611;BMP280;48683;48.084;17.272;2023-11-22T12:19:22;101036.66;;;5.41
62611;BMP280;48683;48.084;17.272;2023-11-22T12:21:48;101050.44;;;5.55
62611;BMP280;48683;48.084;17.272;2023-11-22T12:24:14;101061.31;;;5.50
62611;BMP280;48683;48.084;17.272;2023-11-22T12:26:44;101073.84;;;5.50
62611;BMP280;48683;48.084;17.272;2023-11-22T12:29:12;101087.50;;;5.60
62611;BMP280;48683;48.084;17.272;2023-11-22T12:31:44;101089.16;;;5.53
62611;BMP280;48683;48.084;17.272;2023-11-22T12:34:11;101089.50;;;5.51
62611;BMP280;48683;48.084;17.272;2023-11-22T12:36:37;101088.69;;;5.39
62611;BMP280;48683;48.084;17.272;2023-11-22T12:39:02;101090.66;;;5.30
62611;BMP280;48683;48.084;17.272;2023-11-22T12:41:30;101103.97;;;5.30
62611;BMP280;48683;48.084;17.272;2023-11-22T12:44:07;101095.72;;;5.22
62611;BMP280;48683;48.084;17.272;2023-11-22T12:46:52;101099.31;;;5.06
62611;BMP280;48683;48.084;17.272;2023-11-22T12:49:23;101108.06;;;5.06
62611;BMP280;48683;48.084;17.272;2023-11-22T12:51:52;101107.88;;;4.91
62611;BMP280;48683;48.084;17.272;2023-11-22T12:54:18;101099.22;;;4.82
62611;BMP280;48683;48.084;17.272;2023-11-22T12:56:53;101110.81;;;4.77
62611;BMP280;48683;48.084;17.272;2023-11-22T12:59:23;101111.97;;;4.67
62611;BMP280;48683;48.084;17.272;2023-11-22T13:01:48;101106.56;;;4.55
62611;BMP280;48683;48.084;17.272;2023-11-22T13:04:13;101119.16;;;4.46
62611;BMP280;48683;48.084;17.272;2023-11-22T13:06:39;101103.38;;;4.41
62611;BMP280;48683;48.084;17.272;2023-11-22T13:09:04;101113.34;;;4.44
62611;BMP280;48683;48.084;17.272;2023-11-22T13:11:30;101112.50;;;4.32
62611;BMP280;48683;48.084;17.272;2023-11-22T13:13:55;101119.22;;;4.29
62611;BMP280;48683;48.084;17.272;2023-11-22T13:16:21;101118.44;;;4.28
62611;BMP280;48683;48.084;17.272;2023-11-22T13:18:46;101122.53;;;4.26
62611;BMP280;48683;48.084;17.272;2023-11-22T13:21:13;101111.16;;;4.17
62611;BMP280;48683;48.084;17.272;2023-11-22T13:23:39;101112.84;;;4.21
62611;BMP280;48683;48.084;17.272;2023-11-22T13:26:04;101101.97;;;4.06
62611;BMP280;48683;48.084;17.272;2023-11-22T13:28:30;101115.75;;;4.08
62611;BMP280;48683;48.084;17.272;2023-11-22T13:30:56;101106.34;;;4.10
62611;BMP280;48683;48.084;17.272;2023-11-22T13:33:21;101106.34;;;4.10
62611;BMP280;48683;48.084;17.272;2023-11-22T13:35:47;101118.81;;;4.18
62611;BMP280;48683;48.084;17.272;2023-11-22T13:38:12;101097.63;;;4.01
62611;BMP280;48683;48.084;17.272;2023-11-22T13:40:38;101123.53;;;4.13
62611;BMP280;48683;48.084;17.272;2023-11-22T13:43:05;101108.72;;;4.03
62611;BMP280;48683;48.084;17.272;2023-11-22T13:45:31;101116.69;;;4.03
62611;BMP280;48683;48.084;17.272;2023-11-22T13:47:58;101114.72;;;3.83
62611;BMP280;48683;48.084;17.272;2023-11-22T13:50:28;101126.59;;;3.86
62611;BMP280;48683;48.084;17.272;2023-11-22T13:52:55;101127.88;;;3.79
62611;BMP280;48683;48.084;17.272;2023-11-22T13:55:21;101142.25;;;3.78